sensor_id;sensor_type;location;lat;lon;timestamp;P1;durP1;ratioP1;P2;durP2;ratioP2
74523;SDS011;63074;44.696;10.358;2024-01-25T00:02:26;16.70;;;7.22;;
74523;SDS011;63074;44.696;10.358;2024-01-25T00:04:52;14.57;;;7.47;;
74523;SDS011;63074;44.696;10.358;2024-01-25T00:07:18;13.98;;;7.72;;
74523;SDS011;63074;44.696;10.358;2024-01-25T00:09:44;16.63;;;7.80;;
74523;SDS011;63074;44.696;10.358;2024-01-25T00:12:11;15.82;;;7.80;;
74523;SDS011;63074;44.696;10.358;2024-01-25T00:14:37;17.63;;;7.20;;
74523;SDS011;63074;44.696;10.358;2024-01-25T00:17:03;15.68;;;7.68;;
74523;SDS011;63074;44.696;10.358;2024-01-25T00:19:29;16.70;;;8.30;;
74523;SDS011;63074;44.696;10.358;2024-01-25T00:21:56;13.98;;;7.82;;
74523;SDS011;63074;44.696;10.358;2024-01-25T00:24:22;13.95;;;7.40;;
74523;SDS011;63074;44.696;10.358;2024-01-25T00:26:48;15.50;;;7.28;;
74523;SDS011;63074;44.696;10.358;2024-01-25T00:29:14;14.98;;;6.95;;
74523;SDS011;63074;44.696;10.358;2024-01-25T00:31:41;14.50;;;6.57;;
74523;SDS011;63074;44.696;10.358;2024-01-25T00:34:07;15.13;;;7.15;;
74523;SDS011;63074;44.696;10.358;2024-01-25T00:36:33;13.93;;;6.80;;
74523;SDS011;63074;44.696;10.358;2024-01-25T00:38:59;11.57;;;6.65;;
74523;SDS011;63074;44.696;10.358;2024-01-25T00:41:26;13.45;;;6.22;;
74523;SDS011;63074;44.696;10.358;2024-01-25T00:44:00;13.30;;;6.53;;
74523;SDS011;63074;44.696;10.358;2024-01-25T00:46:27;16.40;;;6.78;;
74523;SDS011;63074;44.696;10.358;2024-01-25T00:48:53;16.33;;;7.15;;
74523;SDS011;63074;44.696;10.358;2024-01-25T00:51:22;12.18;;;6.85;;
74523;SDS011;63074;44.696;10.358;2024-01-25T00:53:49;15.05;;;6.80;;
74523;SDS011;63074;44.696;10.358;2024-01-25T00:56:15;13.77;;;6.82;;
74523;SDS011;63074;44.696;10.358;2024-01-25T00:58:41;17.00;;;9.07;;
74523;SDS011;63074;44.696;10.358;2024-01-25T01:01:08;14.43;;;6.88;;
74523;SDS011;63074;44.696;10.358;2024-01-25T01:03:35;15.57;;;7.35;;
74523;SDS011;63074;44.696;10.358;2024-01-25T01:06:01;14.75;;;6.75;;
74523;SDS011;63074;44.696;10.358;2024-01-25T01:08:28;10.60;;;7.40;;
74523;SDS011;63074;44.696;10.358;2024-01-25T01:10:54;13.88;;;7.35;;
74523;SDS011;63074;44.696;10.358;2024-01-25T01:13:20;15.18;;;7.25;;
74523;SDS011;63074;44.696;10.358;2024-01-25T01:15:47;14.20;;;5.72;;
74523;SDS011;63074;44.696;10.358;2024-01-25T01:18:13;12.52;;;7.07;;
74523;SDS011;63074;44.696;10.358;2024-01-25T01:20:39;14.90;;;6.90;;
74523;SDS011;63074;44.696;10.358;2024-01-25T01:23:05;13.30;;;6.45;;
74523;SDS011;63074;44.696;10.358;2024-01-25T01:25:31;13.07;;;7.13;;
74523;SDS011;63074;44.696;10.358;2024-01-25T01:27:57;14.45;;;6.78;;
74523;SDS011;63074;44.696;10.358;2024-01-25T01:30:24;15.55;;;6.97;;
74523;SDS011;63074;44.696;10.358;2024-01-25T01:32:50;13.75;;;6.72;;
74523;SDS011;63074;44.696;10.358;2024-01-25T01:35:16;14.25;;;6.50;;
74523;SDS011;63074;44.696;10.358;2024-01-25T01:37:42;14.48;;;7.40;;
74523;SDS011;63074;44.696;10.358;2024-01-25T01:40:08;15.05;;;6.65;;
74523;SDS011;63074;44.696;10.358;2024-01-25T01:42:35;16.17;;;8.00;;
74523;SDS011;63074;44.696;10.358;2024-01-25T01:45:01;16.15;;;7.65;;
74523;SDS011;63074;44.696;10.358;2024-01-25T01:47:28;11.05;;;6.28;;
74523;SDS011;63074;44.696;10.358;2024-01-25T01:49:54;13.82;;;6.78;;
74523;SDS011;63074;44.696;10.358;2024-01-25T01:52:20;17.13;;;7.20;;
74523;SDS011;63074;44.696;10.358;2024-01-25T01:54:47;11.13;;;6.75;;
74523;SDS011;63074;44.696;10.358;2024-01-25T01:57:13;12.10;;;6.40;;
74523;SDS011;63074;44.696;10.358;2024-01-25T01:59:40;14.98;;;6.88;;
74523;SDS011;63074;44.696;10.358;2024-01-25T02:02:06;13.75;;;6.57;;
74523;SDS011;63074;44.696;10.358;2024-01-25T02:04:35;16.38;;;6.57;;
74523;SDS011;63074;44.696;10.358;2024-01-25T02:07:01;9.80;;;6.18;;
74523;SDS011;63074;44.696;10.358;2024-01-25T02:09:28;13.10;;;6.88;;
74523;SDS011;63074;44.696;10.358;2024-01-25T02:12:01;12.73;;;5.97;;
74523;SDS011;63074;44.696;10.358;2024-01-25T02:14:27;14.20;;;6.63;;
74523;SDS011;63074;44.696;10.358;2024-01-25T02:16:54;13.68;;;6.78;;
74523;SDS011;63074;44.696;10.358;2024-01-25T02:19:20;14.73;;;7.22;;
74523;SDS011;63074;44.696;10.358;2024-01-25T02:21:46;13.02;;;6.22;;
74523;SDS011;63074;44.696;10.358;2024-01-25T02:24:13;16.63;;;6.68;;
74523;SDS011;63074;44.696;10.358;2024-01-25T02:26:39;13.23;;;7.90;;
74523;SDS011;63074;44.696;10.358;2024-01-25T02:29:06;13.48;;;6.30;;
74523;SDS011;63074;44.696;10.358;2024-01-25T02:31:33;11.35;;;6.53;;
74523;SDS011;63074;44.696;10.358;2024-01-25T02:33:59;12.75;;;6.47;;
74523;SDS011;63074;44.696;10.358;2024-01-25T02:36:25;16.52;;;6.35;;
74523;SDS011;63074;44.696;10.358;2024-01-25T02:38:51;12.10;;;5.93;;
74523;SDS011;63074;44.696;10.358;2024-01-25T02:41:18;12.50;;;6.43;;
74523;SDS011;63074;44.696;10.358;2024-01-25T02:43:44;13.32;;;6.90;;
74523;SDS011;63074;44.696;10.358;2024-01-25T02:46:10;14.88;;;6.40;;
74523;SDS011;63074;44.696;10.358;2024-01-25T02:48:36;15.27;;;6.07;;
74523;SDS011;63074;44.696;10.358;2024-01-25T02:51:02;14.00;;;7.05;;
74523;SDS011;63074;44.696;10.358;2024-01-25T02:53:29;8.95;;;5.82;;
74523;SDS011;63074;44.696;10.358;2024-01-25T02:55:55;12.98;;;5.30;;
74523;SDS011;63074;44.696;10.358;2024-01-25T02:58:21;14.40;;;7.05;;
74523;SDS011;63074;44.696;10.358;2024-01-25T03:00:48;13.70;;;6.22;;
74523;SDS011;63074;44.696;10.358;2024-01-25T03:03:14;13.02;;;6.78;;
74523;SDS011;63074;44.696;10.358;2024-01-25T03:05:41;13.00;;;6.65;;
74523;SDS011;63074;44.696;10.358;2024-01-25T03:08:07;15.20;;;7.32;;
74523;SDS011;63074;44.696;10.358;2024-01-25T03:10:33;13.77;;;6.55;;
74523;SDS011;63074;44.696;10.358;2024-01-25T03:12:59;13.35;;;6.63;;
74523;SDS011;63074;44.696;10.358;2024-01-25T03:15:26;14.38;;;7.63;;
74523;SDS011;63074;44.696;10.358;2024-01-25T03:17:52;13.65;;;7.47;;
74523;SDS011;63074;44.696;10.358;2024-01-25T03:20:18;15.75;;;7.72;;
74523;SDS011;63074;44.696;10.358;2024-01-25T03:22:44;14.13;;;6.30;;
74523;SDS011;63074;44.696;10.358;2024-01-25T03:25:10;14.25;;;7.13;;
74523;SDS011;63074;44.696;10.358;2024-01-25T03:27:37;16.05;;;6.57;;
74523;SDS011;63074;44.696;10.358;2024-01-25T03:30:03;13.63;;;6.57;;
74523;SDS011;63074;44.696;10.358;2024-01-25T03:32:31;13.55;;;6.43;;
74523;SDS011;63074;44.696;10.358;2024-01-25T03:34:58;14.68;;;6.95;;
74523;SDS011;63074;44.696;10.358;2024-01-25T03:37:24;16.17;;;6.70;;
74523;SDS011;63074;44.696;10.358;2024-01-25T03:39:51;12.77;;;6.13;;
74523;SDS011;63074;44.696;10.358;2024-01-25T03:42:17;14.30;;;6.47;;
74523;SDS011;63074;44.696;10.358;2024-01-25T03:44:43;14.10;;;6.93;;
74523;SDS011;63074;44.696;10.358;2024-01-25T03:47:11;14.75;;;6.45;;
74523;SDS011;63074;44.696;10.358;2024-01-25T03:49:37;14.68;;;6.72;;
74523;SDS011;63074;44.696;10.358;2024-01-25T03:52:04;11.77;;;6.55;;
74523;SDS011;63074;44.696;10.358;2024-01-25T03:54:30;14.70;;;7.65;;
74523;SDS011;63074;44.696;10.358;2024-01-25T03:56:57;14.40;;;6.85;;
74523;SDS011;63074;44.696;10.358;2024-01-25T03:59:23;11.65;;;6.10;;
74523;SDS011;63074;44.696;10.358;2024-01-25T04:01:49;16.33;;;6.70;;
74523;SDS011;63074;44.696;10.358;2024-01-25T04:04:15;12.27;;;7.20;;
74523;SDS011;63074;44.696;10.358;2024-01-25T04:06:42;12.40;;;6.75;;
74523;SDS011;63074;44.696;10.358;2024-01-25T04:09:09;13.60;;;7.00;;
74523;SDS011;63074;44.696;10.358;2024-01-25T04:11:38;13.10;;;7.18;;
74523;SDS011;63074;44.696;10.358;2024-01-25T04:14:04;16.52;;;8.25;;
74523;SDS011;63074;44.696;10.358;2024-01-25T04:16:31;13.55;;;7.82;;
74523;SDS011;63074;44.696;10.358;2024-01-25T04:18:58;13.73;;;6.85;;
74523;SDS011;63074;44.696;10.358;2024-01-25T04:21:26;12.85;;;7.22;;
74523;SDS011;63074;44.696;10.358;2024-01-25T04:23:52;12.60;;;6.40;;
74523;SDS011;63074;44.696;10.358;2024-01-25T04:26:18;13.48;;;7.10;;
74523;SDS011;63074;44.696;10.358;2024-01-25T04:28:45;13.77;;;7.65;;
74523;SDS011;63074;44.696;10.358;2024-01-25T04:31:11;14.63;;;7.38;;
74523;SDS011;63074;44.696;10.358;2024-01-25T04:33:37;13.73;;;7.05;;
74523;SDS011;63074;44.696;10.358;2024-01-25T04:36:05;14.65;;;8.15;;
74523;SDS011;63074;44.696;10.358;2024-01-25T04:38:31;13.70;;;7.88;;
74523;SDS011;63074;44.696;10.358;2024-01-25T04:40:58;16.88;;;8.20;;
74523;SDS011;63074;44.696;10.358;2024-01-25T04:43:24;15.80;;;6.90;;
74523;SDS011;63074;44.696;10.358;2024-01-25T04:45:50;17.30;;;8.70;;
74523;SDS011;63074;44.696;10.358;2024-01-25T04:48:16;14.50;;;7.63;;
74523;SDS011;63074;44.696;10.358;2024-01-25T04:50:42;18.80;;;8.73;;
74523;SDS011;63074;44.696;10.358;2024-01-25T04:53:09;17.23;;;9.73;;
74523;SDS011;63074;44.696;10.358;2024-01-25T04:55:35;16.35;;;8.80;;
74523;SDS011;63074;44.696;10.358;2024-01-25T04:58:01;16.60;;;8.63;;
74523;SDS011;63074;44.696;10.358;2024-01-25T05:00:27;17.73;;;8.80;;
74523;SDS011;63074;44.696;10.358;2024-01-25T05:02:53;18.45;;;10.15;;
74523;SDS011;63074;44.696;10.358;2024-01-25T05:05:20;19.65;;;9.65;;
74523;SDS011;63074;44.696;10.358;2024-01-25T05:07:46;20.73;;;10.85;;
74523;SDS011;63074;44.696;10.358;2024-01-25T05:10:12;21.85;;;10.45;;
74523;SDS011;63074;44.696;10.358;2024-01-25T05:12:38;21.70;;;11.00;;
74523;SDS011;63074;44.696;10.358;2024-01-25T05:15:04;18.00;;;10.82;;
74523;SDS011;63074;44.696;10.358;2024-01-25T05:17:31;18.85;;;10.00;;
74523;SDS011;63074;44.696;10.358;2024-01-25T05:19:58;19.42;;;9.48;;
74523;SDS011;63074;44.696;10.358;2024-01-25T05:22:24;20.23;;;10.00;;
74523;SDS011;63074;44.696;10.358;2024-01-25T05:24:51;14.93;;;9.60;;
74523;SDS011;63074;44.696;10.358;2024-01-25T05:27:17;19.85;;;11.27;;
74523;SDS011;63074;44.696;10.358;2024-01-25T05:29:43;18.33;;;10.32;;
74523;SDS011;63074;44.696;10.358;2024-01-25T05:32:09;16.40;;;10.95;;
74523;SDS011;63074;44.696;10.358;2024-01-25T05:34:35;24.90;;;12.23;;
74523;SDS011;63074;44.696;10.358;2024-01-25T05:37:02;21.80;;;12.10;;
74523;SDS011;63074;44.696;10.358;2024-01-25T05:39:28;21.63;;;11.68;;
74523;SDS011;63074;44.696;10.358;2024-01-25T05:41:54;20.45;;;10.85;;
74523;SDS011;63074;44.696;10.358;2024-01-25T05:44:20;20.02;;;10.20;;
74523;SDS011;63074;44.696;10.358;2024-01-25T05:46:46;21.38;;;10.35;;
74523;SDS011;63074;44.696;10.358;2024-01-25T05:49:13;21.95;;;12.07;;
74523;SDS011;63074;44.696;10.358;2024-01-25T05:51:39;22.33;;;11.63;;
74523;SDS011;63074;44.696;10.358;2024-01-25T05:54:05;19.83;;;11.20;;
74523;SDS011;63074;44.696;10.358;2024-01-25T05:56:32;18.77;;;9.75;;
74523;SDS011;63074;44.696;10.358;2024-01-25T05:58:58;18.48;;;9.88;;
74523;SDS011;63074;44.696;10.358;2024-01-25T06:01:24;21.95;;;11.32;;
74523;SDS011;63074;44.696;10.358;2024-01-25T06:03:50;20.48;;;11.45;;
74523;SDS011;63074;44.696;10.358;2024-01-25T06:06:16;21.80;;;11.30;;
74523;SDS011;63074;44.696;10.358;2024-01-25T06:08:42;22.60;;;10.75;;
74523;SDS011;63074;44.696;10.358;2024-01-25T06:11:09;23.38;;;10.32;;
74523;SDS011;63074;44.696;10.358;2024-01-25T06:13:36;15.73;;;8.30;;
74523;SDS011;63074;44.696;10.358;2024-01-25T06:16:02;19.50;;;10.80;;
74523;SDS011;63074;44.696;10.358;2024-01-25T06:18:28;19.13;;;8.90;;
74523;SDS011;63074;44.696;10.358;2024-01-25T06:20:54;19.45;;;9.30;;
74523;SDS011;63074;44.696;10.358;2024-01-25T06:23:21;21.80;;;8.70;;
74523;SDS011;63074;44.696;10.358;2024-01-25T06:25:47;18.25;;;8.50;;
74523;SDS011;63074;44.696;10.358;2024-01-25T06:28:13;16.95;;;8.45;;
74523;SDS011;63074;44.696;10.358;2024-01-25T06:30:39;17.65;;;8.93;;
74523;SDS011;63074;44.696;10.358;2024-01-25T06:33:05;17.98;;;9.32;;
74523;SDS011;63074;44.696;10.358;2024-01-25T06:35:32;26.75;;;11.75;;
74523;SDS011;63074;44.696;10.358;2024-01-25T06:37:59;22.60;;;11.18;;
74523;SDS011;63074;44.696;10.358;2024-01-25T06:40:25;25.27;;;11.77;;
74523;SDS011;63074;44.696;10.358;2024-01-25T06:42:51;23.05;;;11.45;;
74523;SDS011;63074;44.696;10.358;2024-01-25T06:45:17;21.58;;;10.57;;
74523;SDS011;63074;44.696;10.358;2024-01-25T06:47:43;21.92;;;10.05;;
74523;SDS011;63074;44.696;10.358;2024-01-25T06:50:09;14.77;;;7.82;;
74523;SDS011;63074;44.696;10.358;2024-01-25T06:52:35;18.42;;;9.68;;
74523;SDS011;63074;44.696;10.358;2024-01-25T06:55:02;19.55;;;9.38;;
74523;SDS011;63074;44.696;10.358;2024-01-25T06:57:28;17.88;;;9.43;;
74523;SDS011;63074;44.696;10.358;2024-01-25T06:59:54;16.77;;;8.85;;
74523;SDS011;63074;44.696;10.358;2024-01-25T07:02:20;16.70;;;9.07;;
74523;SDS011;63074;44.696;10.358;2024-01-25T07:04:46;20.30;;;10.50;;
74523;SDS011;63074;44.696;10.358;2024-01-25T07:07:13;20.63;;;10.68;;
74523;SDS011;63074;44.696;10.358;2024-01-25T07:09:39;18.48;;;9.45;;
74523;SDS011;63074;44.696;10.358;2024-01-25T07:12:05;19.90;;;9.77;;
74523;SDS011;63074;44.696;10.358;2024-01-25T07:14:32;18.80;;;10.10;;
74523;SDS011;63074;44.696;10.358;2024-01-25T07:16:58;22.25;;;10.77;;
74523;SDS011;63074;44.696;10.358;2024-01-25T07:19:24;23.88;;;10.40;;
74523;SDS011;63074;44.696;10.358;2024-01-25T07:21:50;25.90;;;11.60;;
74523;SDS011;63074;44.696;10.358;2024-01-25T07:24:16;21.58;;;9.88;;
74523;SDS011;63074;44.696;10.358;2024-01-25T07:26:42;21.48;;;10.80;;
74523;SDS011;63074;44.696;10.358;2024-01-25T07:29:09;21.30;;;10.27;;
74523;SDS011;63074;44.696;10.358;2024-01-25T07:31:35;22.92;;;11.45;;
74523;SDS011;63074;44.696;10.358;2024-01-25T07:34:01;28.60;;;12.40;;
74523;SDS011;63074;44.696;10.358;2024-01-25T07:36:28;24.05;;;11.60;;
74523;SDS011;63074;44.696;10.358;2024-01-25T07:38:54;21.35;;;11.82;;
74523;SDS011;63074;44.696;10.358;2024-01-25T07:41:21;24.33;;;11.73;;
74523;SDS011;63074;44.696;10.358;2024-01-25T07:43:48;26.20;;;13.43;;
74523;SDS011;63074;44.696;10.358;2024-01-25T07:46:14;25.58;;;12.18;;
74523;SDS011;63074;44.696;10.358;2024-01-25T07:48:40;21.55;;;10.57;;
74523;SDS011;63074;44.696;10.358;2024-01-25T07:51:13;23.30;;;11.68;;
74523;SDS011;63074;44.696;10.358;2024-01-25T07:53:39;23.50;;;12.50;;
74523;SDS011;63074;44.696;10.358;2024-01-25T07:56:08;23.35;;;12.43;;
74523;SDS011;63074;44.696;10.358;2024-01-25T08:01:05;27.30;;;11.18;;
74523;SDS011;63074;44.696;10.358;2024-01-25T08:03:40;23.58;;;13.38;;
74523;SDS011;63074;44.696;10.358;2024-01-25T08:06:06;20.15;;;10.65;;
74523;SDS011;63074;44.696;10.358;2024-01-25T08:08:32;25.33;;;12.95;;
74523;SDS011;63074;44.696;10.358;2024-01-25T08:10:59;23.17;;;10.68;;
74523;SDS011;63074;44.696;10.358;2024-01-25T08:13:25;24.08;;;11.80;;
74523;SDS011;63074;44.696;10.358;2024-01-25T08:15:54;19.45;;;10.60;;
74523;SDS011;63074;44.696;10.358;2024-01-25T08:18:20;24.35;;;12.02;;
74523;SDS011;63074;44.696;10.358;2024-01-25T08:20:48;24.17;;;11.63;;
74523;SDS011;63074;44.696;10.358;2024-01-25T08:23:15;19.02;;;10.25;;
74523;SDS011;63074;44.696;10.358;2024-01-25T08:25:41;22.85;;;10.85;;
74523;SDS011;63074;44.696;10.358;2024-01-25T08:28:08;20.27;;;11.10;;
74523;SDS011;63074;44.696;10.358;2024-01-25T08:30:34;23.25;;;11.20;;
74523;SDS011;63074;44.696;10.358;2024-01-25T08:33:00;22.88;;;12.13;;
74523;SDS011;63074;44.696;10.358;2024-01-25T08:35:26;22.55;;;11.18;;
74523;SDS011;63074;44.696;10.358;2024-01-25T08:37:52;26.25;;;12.27;;
74523;SDS011;63074;44.696;10.358;2024-01-25T08:40:19;27.95;;;13.07;;
74523;SDS011;63074;44.696;10.358;2024-01-25T08:42:45;25.85;;;11.90;;
74523;SDS011;63074;44.696;10.358;2024-01-25T08:45:12;24.30;;;11.73;;
74523;SDS011;63074;44.696;10.358;2024-01-25T08:47:38;26.35;;;12.27;;
74523;SDS011;63074;44.696;10.358;2024-01-25T08:50:05;27.13;;;13.35;;
74523;SDS011;63074;44.696;10.358;2024-01-25T08:55:03;23.70;;;13.00;;
74523;SDS011;63074;44.696;10.358;2024-01-25T08:57:29;29.98;;;14.93;;
74523;SDS011;63074;44.696;10.358;2024-01-25T08:59:56;30.25;;;14.60;;
74523;SDS011;63074;44.696;10.358;2024-01-25T09:02:23;34.90;;;15.35;;
74523;SDS011;63074;44.696;10.358;2024-01-25T09:04:52;28.90;;;13.63;;
74523;SDS011;63074;44.696;10.358;2024-01-25T09:07:22;30.88;;;15.77;;
74523;SDS011;63074;44.696;10.358;2024-01-25T09:09:48;30.30;;;14.77;;
74523;SDS011;63074;44.696;10.358;2024-01-25T09:12:14;32.13;;;16.15;;
74523;SDS011;63074;44.696;10.358;2024-01-25T09:14:41;31.52;;;15.43;;
74523;SDS011;63074;44.696;10.358;2024-01-25T09:17:08;28.83;;;14.70;;
74523;SDS011;63074;44.696;10.358;2024-01-25T09:19:34;28.77;;;16.42;;
74523;SDS011;63074;44.696;10.358;2024-01-25T09:22:00;30.73;;;14.80;;
74523;SDS011;63074;44.696;10.358;2024-01-25T09:24:29;28.83;;;14.02;;
74523;SDS011;63074;44.696;10.358;2024-01-25T09:26:56;34.05;;;16.42;;
74523;SDS011;63074;44.696;10.358;2024-01-25T09:29:24;32.13;;;17.95;;
74523;SDS011;63074;44.696;10.358;2024-01-25T09:31:50;34.53;;;16.42;;
74523;SDS011;63074;44.696;10.358;2024-01-25T09:34:16;37.80;;;18.60;;
74523;SDS011;63074;44.696;10.358;2024-01-25T09:36:42;36.10;;;16.77;;
74523;SDS011;63074;44.696;10.358;2024-01-25T09:39:10;32.42;;;15.90;;
74523;SDS011;63074;44.696;10.358;2024-01-25T09:41:36;36.63;;;16.63;;
74523;SDS011;63074;44.696;10.358;2024-01-25T09:44:03;39.03;;;18.33;;
74523;SDS011;63074;44.696;10.358;2024-01-25T09:46:29;35.63;;;17.33;;
74523;SDS011;63074;44.696;10.358;2024-01-25T09:48:56;38.30;;;17.40;;
74523;SDS011;63074;44.696;10.358;2024-01-25T09:51:23;35.00;;;17.83;;
74523;SDS011;63074;44.696;10.358;2024-01-25T09:53:49;39.67;;;20.00;;
74523;SDS011;63074;44.696;10.358;2024-01-25T09:56:20;40.10;;;18.55;;
74523;SDS011;63074;44.696;10.358;2024-01-25T09:58:48;33.75;;;17.40;;
74523;SDS011;63074;44.696;10.358;2024-01-25T10:01:15;37.65;;;18.45;;
74523;SDS011;63074;44.696;10.358;2024-01-25T10:03:42;36.97;;;20.00;;
74523;SDS011;63074;44.696;10.358;2024-01-25T10:06:12;34.03;;;16.58;;
74523;SDS011;63074;44.696;10.358;2024-01-25T10:08:40;36.03;;;17.55;;
74523;SDS011;63074;44.696;10.358;2024-01-25T10:11:07;31.83;;;15.95;;
74523;SDS011;63074;44.696;10.358;2024-01-25T10:13:40;28.63;;;16.13;;
74523;SDS011;63074;44.696;10.358;2024-01-25T10:16:07;31.98;;;15.77;;
74523;SDS011;63074;44.696;10.358;2024-01-25T10:18:40;29.00;;;16.00;;
74523;SDS011;63074;44.696;10.358;2024-01-25T10:21:10;31.38;;;16.17;;
74523;SDS011;63074;44.696;10.358;2024-01-25T10:23:37;30.48;;;16.02;;
74523;SDS011;63074;44.696;10.358;2024-01-25T10:26:03;33.03;;;17.38;;
74523;SDS011;63074;44.696;10.358;2024-01-25T10:28:30;34.35;;;17.20;;
74523;SDS011;63074;44.696;10.358;2024-01-25T10:30:59;33.00;;;17.95;;
74523;SDS011;63074;44.696;10.358;2024-01-25T10:33:26;36.13;;;17.10;;
74523;SDS011;63074;44.696;10.358;2024-01-25T10:35:59;30.95;;;17.08;;
74523;SDS011;63074;44.696;10.358;2024-01-25T10:38:32;30.83;;;16.80;;
74523;SDS011;63074;44.696;10.358;2024-01-25T10:41:01;34.67;;;16.08;;
74523;SDS011;63074;44.696;10.358;2024-01-25T10:43:29;33.85;;;16.52;;
74523;SDS011;63074;44.696;10.358;2024-01-25T10:45:56;35.25;;;17.40;;
74523;SDS011;63074;44.696;10.358;2024-01-25T10:48:26;38.70;;;18.85;;
74523;SDS011;63074;44.696;10.358;2024-01-25T10:50:56;34.50;;;18.58;;
74523;SDS011;63074;44.696;10.358;2024-01-25T10:53:27;36.97;;;18.00;;
74523;SDS011;63074;44.696;10.358;2024-01-25T10:55:59;38.35;;;19.75;;
74523;SDS011;63074;44.696;10.358;2024-01-25T10:58:30;41.05;;;19.42;;
74523;SDS011;63074;44.696;10.358;2024-01-25T11:00:58;39.38;;;20.40;;
74523;SDS011;63074;44.696;10.358;2024-01-25T11:03:26;44.92;;;20.17;;
74523;SDS011;63074;44.696;10.358;2024-01-25T11:05:54;43.50;;;21.67;;
74523;SDS011;63074;44.696;10.358;2024-01-25T11:08:30;42.97;;;19.38;;
74523;SDS011;63074;44.696;10.358;2024-01-25T11:10:56;39.55;;;20.60;;
74523;SDS011;63074;44.696;10.358;2024-01-25T11:13:23;41.55;;;21.08;;
74523;SDS011;63074;44.696;10.358;2024-01-25T11:15:52;40.35;;;19.88;;
74523;SDS011;63074;44.696;10.358;2024-01-25T11:18:18;39.95;;;20.80;;
74523;SDS011;63074;44.696;10.358;2024-01-25T11:20:46;47.45;;;22.02;;
74523;SDS011;63074;44.696;10.358;2024-01-25T11:23:14;47.38;;;21.73;;
74523;SDS011;63074;44.696;10.358;2024-01-25T11:25:44;45.50;;;20.55;;
74523;SDS011;63074;44.696;10.358;2024-01-25T11:28:11;41.20;;;21.48;;
74523;SDS011;63074;44.696;10.358;2024-01-25T11:30:42;43.22;;;21.08;;
74523;SDS011;63074;44.696;10.358;2024-01-25T11:33:09;42.85;;;22.88;;
74523;SDS011;63074;44.696;10.358;2024-01-25T11:35:36;44.53;;;21.70;;
74523;SDS011;63074;44.696;10.358;2024-01-25T11:38:03;44.70;;;22.13;;
74523;SDS011;63074;44.696;10.358;2024-01-25T11:40:29;50.38;;;24.75;;
74523;SDS011;63074;44.696;10.358;2024-01-25T11:42:56;47.13;;;23.40;;
74523;SDS011;63074;44.696;10.358;2024-01-25T11:45:22;51.53;;;22.73;;
74523;SDS011;63074;44.696;10.358;2024-01-25T11:47:49;42.38;;;21.05;;
74523;SDS011;63074;44.696;10.358;2024-01-25T11:50:15;55.15;;;25.77;;
74523;SDS011;63074;44.696;10.358;2024-01-25T11:52:41;52.67;;;27.10;;
74523;SDS011;63074;44.696;10.358;2024-01-25T11:55:09;52.53;;;26.35;;
74523;SDS011;63074;44.696;10.358;2024-01-25T11:57:39;47.45;;;24.40;;
74523;SDS011;63074;44.696;10.358;2024-01-25T12:00:07;48.53;;;24.88;;
74523;SDS011;63074;44.696;10.358;2024-01-25T12:02:35;47.55;;;25.77;;
74523;SDS011;63074;44.696;10.358;2024-01-25T12:05:02;48.85;;;25.23;;
74523;SDS011;63074;44.696;10.358;2024-01-25T12:07:30;49.67;;;24.23;;
74523;SDS011;63074;44.696;10.358;2024-01-25T12:10:01;45.95;;;24.20;;
74523;SDS011;63074;44.696;10.358;2024-01-25T12:12:29;50.10;;;24.15;;
74523;SDS011;63074;44.696;10.358;2024-01-25T12:14:59;52.22;;;24.15;;
74523;SDS011;63074;44.696;10.358;2024-01-25T12:17:29;49.00;;;24.33;;
74523;SDS011;63074;44.696;10.358;2024-01-25T12:19:57;51.42;;;25.23;;
74523;SDS011;63074;44.696;10.358;2024-01-25T12:22:24;44.63;;;23.23;;
74523;SDS011;63074;44.696;10.358;2024-01-25T12:24:54;43.30;;;22.67;;
74523;SDS011;63074;44.696;10.358;2024-01-25T12:27:22;46.63;;;24.02;;
74523;SDS011;63074;44.696;10.358;2024-01-25T12:29:50;50.05;;;23.38;;
74523;SDS011;63074;44.696;10.358;2024-01-25T12:32:18;43.63;;;22.70;;
74523;SDS011;63074;44.696;10.358;2024-01-25T12:34:55;42.45;;;22.38;;
74523;SDS011;63074;44.696;10.358;2024-01-25T12:37:24;44.33;;;22.13;;
74523;SDS011;63074;44.696;10.358;2024-01-25T12:39:51;44.50;;;23.88;;
74523;SDS011;63074;44.696;10.358;2024-01-25T12:42:18;42.67;;;23.35;;
74523;SDS011;63074;44.696;10.358;2024-01-25T12:44:45;35.95;;;20.98;;
74523;SDS011;63074;44.696;10.358;2024-01-25T12:47:12;39.58;;;22.60;;
74523;SDS011;63074;44.696;10.358;2024-01-25T12:49:41;40.92;;;21.45;;
74523;SDS011;63074;44.696;10.358;2024-01-25T12:52:09;37.25;;;20.27;;
74523;SDS011;63074;44.696;10.358;2024-01-25T12:54:36;35.28;;;18.52;;
74523;SDS011;63074;44.696;10.358;2024-01-25T12:57:03;32.63;;;18.48;;
74523;SDS011;63074;44.696;10.358;2024-01-25T12:59:30;32.95;;;18.52;;
74523;SDS011;63074;44.696;10.358;2024-01-25T13:01:57;31.70;;;17.73;;
74523;SDS011;63074;44.696;10.358;2024-01-25T13:04:24;29.65;;;17.02;;
74523;SDS011;63074;44.696;10.358;2024-01-25T13:06:52;32.08;;;17.40;;
74523;SDS011;63074;44.696;10.358;2024-01-25T13:09:22;27.33;;;16.88;;
74523;SDS011;63074;44.696;10.358;2024-01-25T13:11:48;33.97;;;19.00;;
74523;SDS011;63074;44.696;10.358;2024-01-25T13:14:17;31.33;;;17.52;;
74523;SDS011;63074;44.696;10.358;2024-01-25T13:16:44;30.38;;;17.27;;
74523;SDS011;63074;44.696;10.358;2024-01-25T13:19:10;32.33;;;18.17;;
74523;SDS011;63074;44.696;10.358;2024-01-25T13:21:40;34.33;;;18.85;;
74523;SDS011;63074;44.696;10.358;2024-01-25T13:24:07;36.05;;;19.83;;
74523;SDS011;63074;44.696;10.358;2024-01-25T13:26:36;33.65;;;19.95;;
74523;SDS011;63074;44.696;10.358;2024-01-25T13:29:03;34.97;;;21.23;;
74523;SDS011;63074;44.696;10.358;2024-01-25T13:31:29;35.22;;;20.52;;
74523;SDS011;63074;44.696;10.358;2024-01-25T13:33:55;40.15;;;21.85;;
74523;SDS011;63074;44.696;10.358;2024-01-25T13:36:21;36.60;;;21.60;;
74523;SDS011;63074;44.696;10.358;2024-01-25T13:38:47;36.33;;;22.40;;
74523;SDS011;63074;44.696;10.358;2024-01-25T13:41:14;35.97;;;22.27;;
74523;SDS011;63074;44.696;10.358;2024-01-25T13:43:40;40.97;;;22.80;;
74523;SDS011;63074;44.696;10.358;2024-01-25T13:46:06;44.00;;;23.48;;
74523;SDS011;63074;44.696;10.358;2024-01-25T13:48:32;44.60;;;23.83;;
74523;SDS011;63074;44.696;10.358;2024-01-25T13:50:58;43.83;;;24.10;;
74523;SDS011;63074;44.696;10.358;2024-01-25T13:53:24;45.78;;;25.23;;
74523;SDS011;63074;44.696;10.358;2024-01-25T13:55:50;45.15;;;25.50;;
74523;SDS011;63074;44.696;10.358;2024-01-25T13:58:17;42.38;;;25.63;;
74523;SDS011;63074;44.696;10.358;2024-01-25T14:00:43;45.55;;;24.33;;
74523;SDS011;63074;44.696;10.358;2024-01-25T14:03:09;48.55;;;25.42;;
74523;SDS011;63074;44.696;10.358;2024-01-25T14:05:35;46.95;;;25.77;;
74523;SDS011;63074;44.696;10.358;2024-01-25T14:08:02;46.28;;;25.08;;
74523;SDS011;63074;44.696;10.358;2024-01-25T14:10:28;45.63;;;26.08;;
74523;SDS011;63074;44.696;10.358;2024-01-25T14:12:55;50.03;;;26.88;;
74523;SDS011;63074;44.696;10.358;2024-01-25T14:15:21;43.45;;;24.58;;
74523;SDS011;63074;44.696;10.358;2024-01-25T14:17:47;47.83;;;26.65;;